Kitanomaru — JD2835 — position and weather

sailwx.info

Track history (hours):
 
Tides and Currents Weather Stations Pressure Air Temp Water Temp Dewpoint Dewpoint Depression Visibility Wind Speed Wind Dir Waves Ship Positions

Kitanomaru

Last reported at 2015-May-22 20:33 UTC. Time now 2015-May-22 20:40 UTC.
Position N 35°36' E 140°06'.

Length 39 m; draft 4 m.

Type: Tug. MMSI: 431000773.

Date/timePositionNaut miles runAvg speedWind from/ knotsBaromVisibWave heightAir tempDewpointWater temp
2015-May-22 20:33N 35°36' E 140°06'0 0.0
2015-May-22 19:34N 35°36' E 140°06'0 0.0
2015-May-22 18:33N 35°36' E 140°06'0 0.0
2015-May-22 17:34N 35°36' E 140°06'0 0.0
2015-May-22 16:33N 35°36' E 140°06'0 0.0
2015-May-22 15:34N 35°36' E 140°06'0 0.0
2015-May-22 14:34N 35°36' E 140°06'0 0.0
2015-May-22 13:33N 35°36' E 140°06'0 0.0
2015-May-22 12:34N 35°36' E 140°06'0 0.0
2015-May-22 11:33N 35°36' E 140°06'0 0.0
2015-May-22 10:33N 35°36' E 140°06'0 0.0
2015-May-22 09:33N 35°36' E 140°06'0 0.0
2015-May-22 08:33N 35°36' E 140°06'0 0.0
2015-May-22 07:33N 35°36' E 140°06'0 0.0
2015-May-22 06:33N 35°36' E 140°06'1 0.6
2015-May-22 05:33N 35°36' E 140°06'1 0.8
2015-May-22 04:33N 35°36' E 140°05'2 1.9
2015-May-22 03:33N 35°35' E 140°03'0 0.0
2015-May-22 02:33N 35°35' E 140°03'0 0.0
2015-May-22 01:33N 35°35' E 140°03'7 6.9
2015-May-22 00:33N 35°31' E 139°56'0 0.0
2015-May-21 23:34N 35°31' E 139°56'2 2.0
2015-May-21 22:33N 35°30' E 139°54'2 2.0
2015-May-21 21:32N 35°31' E 139°56'9 9.1
2015-May-21 20:33N 35°35' E 140°05'1 1.0
2015-May-21 19:33N 35°36' E 140°06'0 0.0
2015-May-21 18:34N 35°36' E 140°06'0 0.0
2015-May-21 17:34N 35°36' E 140°06'0 0.0
2015-May-21 16:34N 35°36' E 140°06'0 0.0
2015-May-21 15:34N 35°36' E 140°06'0 0.0
2015-May-21 14:33N 35°36' E 140°06'0 0.0
2015-May-21 13:33N 35°36' E 140°06'0 0.0
2015-May-21 12:33N 35°36' E 140°06'0 0.0
2015-May-21 11:34N 35°36' E 140°06'0 0.0
2015-May-21 10:33N 35°36' E 140°06'0 0.0
2015-May-21 09:33N 35°36' E 140°06'1 1.2
2015-May-21 08:33N 35°35' E 140°06'1 0.6
2015-May-21 07:34N 35°35' E 140°06'3 2.5
2015-May-21 06:32N 35°34' E 140°03'0 0.0
2015-May-21 05:33N 35°34' E 140°03'0 0.0
2015-May-21 04:33N 35°34' E 140°03'4 4.0
2015-May-21 03:33N 35°33' E 139°59'3 2.7
2015-May-21 02:33N 35°31' E 139°56'0 0.4
2015-May-21 01:33N 35°31' E 139°57'0 0.0
2015-May-21 00:33N 35°31' E 139°57'3 2.7
2015-May-20 23:33N 35°28' E 139°58'4 4.3
2015-May-20 22:33N 35°32' E 140°02'6 5.8
2015-May-20 21:34N 35°36' E 140°06'0 0.0
2015-May-20 20:34N 35°36' E 140°06'0 0.0
2015-May-20 19:33N 35°36' E 140°06'0 0.0
2015-May-20 18:33N 35°36' E 140°06'0 0.0
2015-May-20 17:34N 35°36' E 140°06'0 0.0
2015-May-20 16:33N 35°36' E 140°06'0 0.0
2015-May-20 15:33N 35°36' E 140°06'0 0.0
2015-May-20 14:33N 35°36' E 140°06'0 0.0
2015-May-20 13:34N 35°36' E 140°06'0 0.0
2015-May-20 12:34N 35°36' E 140°06'0 0.0
2015-May-20 11:34N 35°36' E 140°06'0 0.0
2015-May-20 10:34N 35°36' E 140°06'0 0.0
2015-May-20 09:33N 35°36' E 140°06'0 0.0
2015-May-20 08:33N 35°36' E 140°06'0 0.0
2015-May-20 07:33N 35°36' E 140°06'3 2.7
2015-May-20 06:33N 35°33' E 140°06'1 1.0
2015-May-20 05:33N 35°33' E 140°04'3 2.9
2015-May-20 04:32N 35°31' E 140°02'0 0.4
2015-May-20 03:33N 35°31' E 140°02'0 0.4
2015-May-20 02:33N 35°31' E 140°02'1 1.1
2015-May-20 01:33N 35°31' E 140°01'0 0.0
2015-May-20 00:33N 35°31' E 140°01'3 2.9
2015-May-19 23:33N 35°28' E 139°59'10 9.8
2015-May-19 22:33N 35°36' E 140°06'0 0.1
2015-May-19 21:33N 35°36' E 140°06'0 0.0
2015-May-19 20:34N 35°36' E 140°06'0 0.0
2015-May-19 19:33N 35°36' E 140°06'0 0.0
2015-May-19 18:34N 35°36' E 140°06'0 0.0
2015-May-19 17:33N 35°36' E 140°06'0 0.0
2015-May-19 16:33N 35°36' E 140°06'0 0.0
2015-May-19 15:33N 35°36' E 140°06'0 0.0
2015-May-19 14:33N 35°36' E 140°06'0 0.0
2015-May-19 13:34N 35°36' E 140°06'0 0.0
2015-May-19 12:33N 35°36' E 140°06'0 0.0
2015-May-19 11:33N 35°36' E 140°06'0 0.0
2015-May-19 10:33N 35°36' E 140°06'0 0.0
2015-May-19 09:33N 35°36' E 140°06'0 0.0
2015-May-19 08:34N 35°36' E 140°06'0 0.0
2015-May-19 07:34N 35°36' E 140°06'1 1.2
2015-May-19 06:33N 35°35' E 140°06'2 2.1
2015-May-19 05:33N 35°35' E 140°04'0 0.3
2015-May-19 04:32N 35°35' E 140°04'0 0.0
2015-May-19 03:33N 35°35' E 140°04'0 0.0
2015-May-19 02:32N 35°35' E 140°04'0 0.0
2015-May-19 01:33N 35°35' E 140°04'0 0.0
2015-May-19 00:33N 35°35' E 140°04'2 2.1
2015-May-18 23:33N 35°35' E 140°06'2 1.9
2015-May-18 22:33N 35°36' E 140°05'0 0.3
2015-May-18 21:33N 35°36' E 140°05'1 0.9
2015-May-18 20:34N 35°36' E 140°06'0 0.0
2015-May-18 19:34N 35°36' E 140°06'0 0.0
2015-May-18 18:34N 35°36' E 140°06'0 0.0
2015-May-18 17:34N 35°36' E 140°06'0 0.0
2015-May-18 16:34N 35°36' E 140°06'0 0.0
2015-May-18 15:33N 35°36' E 140°06'0 0.0
2015-May-18 14:33N 35°36' E 140°06'0 0.0
2015-May-18 13:33N 35°36' E 140°06'0 0.0
2015-May-18 12:34N 35°36' E 140°06'0 0.0
2015-May-18 11:33N 35°36' E 140°06'0 0.0
2015-May-18 10:33N 35°36' E 140°06'0 0.0
2015-May-18 09:34N 35°36' E 140°06'0 0.0
2015-May-18 08:34N 35°36' E 140°06'0 0.0
2015-May-18 07:34N 35°36' E 140°06'7 6.7
2015-May-18 06:33N 35°33' E 139°59'3 3.1
2015-May-18 05:34N 35°31' E 139°56'2 1.9
2015-May-18 04:34N 35°30' E 139°54'1 0.7
2015-May-18 03:33N 35°29' E 139°55'3 2.6
2015-May-18 02:33N 35°28' E 139°58'0 0.4
2015-May-18 01:34N 35°29' E 139°59'0 0.0
2015-May-18 00:33N 35°29' E 139°59'0 0.0
2015-May-17 23:32N 35°29' E 139°59'0 0.5
2015-May-17 22:33N 35°28' E 139°59'1 0.9
2015-May-17 21:33N 35°29' E 139°59'9 9.3
2015-May-17 20:34N 35°36' E 140°06'0 0.2
2015-May-17 19:34N 35°36' E 140°06'0 0.0
2015-May-17 18:33N 35°36' E 140°06'0 0.0
2015-May-17 17:33N 35°36' E 140°06'0 0.0
2015-May-17 16:33N 35°36' E 140°06'0 0.0
2015-May-17 15:34N 35°36' E 140°06'0 0.0
2015-May-17 14:33N 35°36' E 140°06'0 0.0
2015-May-17 13:33N 35°36' E 140°06'0 0.0
2015-May-17 12:33N 35°36' E 140°06'0 0.0
2015-May-17 11:33N 35°36' E 140°06'0 0.0
2015-May-17 10:33N 35°36' E 140°06'0 0.0
2015-May-17 09:33N 35°36' E 140°06'0 0.0
2015-May-17 08:34N 35°36' E 140°06'0 0.0
2015-May-17 07:33N 35°36' E 140°06'6 6.0
2015-May-17 06:33N 35°31' E 140°02'1 0.6
2015-May-17 05:33N 35°31' E 140°01'0 0.5
2015-May-17 04:33N 35°32' E 140°01'0 0.0
2015-May-17 03:33N 35°32' E 140°01'0 0.0
2015-May-17 02:33N 35°32' E 140°01'0 0.0
2015-May-17 01:33N 35°32' E 140°01'0 0.0
2015-May-17 00:33N 35°32' E 140°01'0 0.0
2015-May-16 23:34N 35°32' E 140°01'1 0.8
2015-May-16 22:33N 35°31' E 140°00'4 4.0
2015-May-16 21:33N 35°34' E 140°04'3 3.0
2015-May-16 20:34N 35°36' E 140°06'0 0.0
2015-May-16 19:33N 35°36' E 140°06'0 0.0
2015-May-16 18:33N 35°36' E 140°06'0 0.0
2015-May-16 17:33N 35°36' E 140°06'0 0.0
2015-May-16 16:33N 35°36' E 140°06'0 0.0
2015-May-16 15:34N 35°36' E 140°06'0 0.0
2015-May-16 14:33N 35°36' E 140°06'0 0.0
2015-May-16 13:33N 35°36' E 140°06'0 0.0
2015-May-16 12:33N 35°36' E 140°06'0 0.0
2015-May-16 11:33N 35°36' E 140°06'0 0.0
2015-May-16 10:33N 35°36' E 140°06'0 0.0
2015-May-16 09:33N 35°36' E 140°06'0 0.0
2015-May-16 08:33N 35°36' E 140°06'0 0.0
2015-May-16 07:33N 35°36' E 140°06'0 0.0
2015-May-16 06:34N 35°36' E 140°06'0 0.0
2015-May-16 05:34N 35°36' E 140°06'1 0.6
2015-May-16 04:33N 35°36' E 140°07'8 8.4
2015-May-16 03:33N 35°30' E 139°59'2 2.0
2015-May-16 02:33N 35°28' E 139°58'2 2.1
2015-May-16 01:33N 35°30' E 139°56'2 2.1
2015-May-16 00:33N 35°28' E 139°58'4 4.0
2015-May-15 23:33N 35°32' E 140°01'6 6.2
2015-May-15 22:33N 35°36' E 140°06'0 0.0
2015-May-15 21:34N 35°36' E 140°06'0 0.0
2015-May-15 20:33N 35°36' E 140°06'0 0.0
2015-May-15 19:33N 35°36' E 140°06'0 0.0
2015-May-15 18:34N 35°36' E 140°06'0 0.0
2015-May-15 17:34N 35°36' E 140°06'0 0.0
2015-May-15 16:33N 35°36' E 140°06'0 0.0
2015-May-15 15:33N 35°36' E 140°06'0 0.0
2015-May-15 14:34N 35°36' E 140°06'0 0.0
2015-May-15 13:34N 35°36' E 140°06'0 0.0
2015-May-15 12:33N 35°36' E 140°06'0 0.0
2015-May-15 11:34N 35°36' E 140°06'1 1.1
2015-May-15 10:34N 35°35' E 140°05'1 0.7
2015-May-15 09:33N 35°35' E 140°04'2 1.8
2015-May-15 08:33N 35°36' E 140°07'1 0.6
2015-May-15 07:34N 35°36' E 140°06'0 0.0
2015-May-15 06:34N 35°36' E 140°06'0 0.0
2015-May-15 05:33N 35°36' E 140°06'0 0.0
2015-May-15 04:33N 35°36' E 140°06'0 0.0
2015-May-15 03:34N 35°36' E 140°06'0 0.0
2015-May-15 02:33N 35°36' E 140°06'1 0.6
2015-May-15 01:33N 35°36' E 140°06'0 0.5
2015-May-15 00:34N 35°36' E 140°07'1 1.2
2015-May-14 23:33N 35°36' E 140°05'2 1.6
2015-May-14 22:33N 35°35' E 140°04'0 0.5
2015-May-14 21:33N 35°35' E 140°04'1 1.1
2015-May-14 20:33N 35°35' E 140°05'1 1.1
2015-May-14 19:33N 35°36' E 140°06'0 0.0
2015-May-14 18:33N 35°36' E 140°06'0 0.0
2015-May-14 17:33N 35°36' E 140°06'0 0.0
2015-May-14 16:33N 35°36' E 140°06'0 0.0
2015-May-14 15:33N 35°36' E 140°06'0 0.0
2015-May-14 14:33N 35°36' E 140°06'0 0.0
2015-May-14 13:33N 35°36' E 140°06'0 0.0
2015-May-14 12:33N 35°36' E 140°06'0 0.0
2015-May-14 11:34N 35°36' E 140°06'0 0.0
2015-May-14 10:33N 35°36' E 140°06'0 0.0
2015-May-14 09:33N 35°36' E 140°06'0 0.0
2015-May-14 08:33N 35°36' E 140°06'0 0.0
2015-May-14 07:34N 35°36' E 140°06'0 0.1
2015-May-14 06:33N 35°36' E 140°06'3 2.6
2015-May-14 05:33N 35°33' E 140°05'0 0.2
2015-May-14 04:33N 35°33' E 140°05'3 2.7
2015-May-14 03:34N 35°36' E 140°06'1110.9
2015-May-14 02:33N 35°30' E 139°55'1211.7
2015-May-14 01:33N 35°22' E 139°44'6 6.3
2015-May-14 00:33N 35°16' E 139°46'5 5.5
2015-May-13 23:33N 35°11' E 139°47'8 8.1
2015-May-13 22:33N 35°18' E 139°43'9 9.2
2015-May-13 21:33N 35°27' E 139°47'1111.0
2015-May-13 20:33N 35°33' E 139°58'8 7.6
2015-May-13 19:33N 35°36' E 140°06'0 0.0
2015-May-13 18:33N 35°36' E 140°06'0 0.0
2015-May-13 17:34N 35°36' E 140°06'0 0.0
2015-May-13 16:33N 35°36' E 140°06'0 0.0
2015-May-13 15:33N 35°36' E 140°06'0 0.0
2015-May-13 14:33N 35°36' E 140°06'0 0.0
2015-May-13 13:34N 35°36' E 140°06'0 0.0
2015-May-13 12:33N 35°36' E 140°06'0 0.0
2015-May-13 11:33N 35°36' E 140°06'0 0.0
2015-May-13 10:34N 35°36' E 140°06'0 0.0
2015-May-13 09:34N 35°36' E 140°06'0 0.0
2015-May-13 08:33N 35°36' E 140°06'0 0.0
2015-May-13 07:33N 35°36' E 140°06'0 0.0
2015-May-13 06:34N 35°36' E 140°06'1 1.3
2015-May-13 05:33N 35°36' E 140°05'0 0.4
2015-May-13 04:33N 35°36' E 140°05'2 1.8
2015-May-13 03:33N 35°35' E 140°04'0 0.0
2015-May-13 02:33N 35°35' E 140°04'0 0.0
2015-May-13 01:33N 35°35' E 140°04'0 0.0
2015-May-13 00:33N 35°35' E 140°04'0 0.0
2015-May-12 23:33N 35°35' E 140°04'6 5.9
2015-May-12 22:33N 35°40' E 139°60'0 0.2
2015-May-12 21:33N 35°40' E 140°00'  
Track history (hours):
 
Tides and Currents Weather Stations Pressure Air Temp Water Temp Dewpoint Dewpoint Depression Visibility Wind Speed Wind Dir Waves Ship Positions

Kitanomaru

Last reported at 2015-May-22 20:33 UTC. Time now 2015-May-22 20:40 UTC.
Position N 35°36' E 140°06'.

Length 39 m; draft 4 m.

Type: Tug. MMSI: 431000773.

Date/timePositionNaut miles runAvg speedWind from/ knotsBaromVisibWave heightAir tempDewpointWater temp
2015-May-22 20:33N 35°36' E 140°06'0 0.0
2015-May-22 19:34N 35°36' E 140°06'0 0.0
2015-May-22 18:33N 35°36' E 140°06'0 0.0
2015-May-22 17:34N 35°36' E 140°06'0 0.0
2015-May-22 16:33N 35°36' E 140°06'0 0.0
2015-May-22 15:34N 35°36' E 140°06'0 0.0
2015-May-22 14:34N 35°36' E 140°06'0 0.0
2015-May-22 13:33N 35°36' E 140°06'0 0.0
2015-May-22 12:34N 35°36' E 140°06'0 0.0
2015-May-22 11:33N 35°36' E 140°06'0 0.0
2015-May-22 10:33N 35°36' E 140°06'0 0.0
2015-May-22 09:33N 35°36' E 140°06'0 0.0
2015-May-22 08:33N 35°36' E 140°06'0 0.0
2015-May-22 07:33N 35°36' E 140°06'0 0.0
2015-May-22 06:33N 35°36' E 140°06'1 0.6
2015-May-22 05:33N 35°36' E 140°06'1 0.8
2015-May-22 04:33N 35°36' E 140°05'2 1.9
2015-May-22 03:33N 35°35' E 140°03'0 0.0
2015-May-22 02:33N 35°35' E 140°03'0 0.0
2015-May-22 01:33N 35°35' E 140°03'7 6.9
2015-May-22 00:33N 35°31' E 139°56'0 0.0
2015-May-21 23:34N 35°31' E 139°56'2 2.0
2015-May-21 22:33N 35°30' E 139°54'2 2.0
2015-May-21 21:32N 35°31' E 139°56'9 9.1
2015-May-21 20:33N 35°35' E 140°05'1 1.0
2015-May-21 19:33N 35°36' E 140°06'0 0.0
2015-May-21 18:34N 35°36' E 140°06'0 0.0
2015-May-21 17:34N 35°36' E 140°06'0 0.0
2015-May-21 16:34N 35°36' E 140°06'0 0.0
2015-May-21 15:34N 35°36' E 140°06'0 0.0
2015-May-21 14:33N 35°36' E 140°06'0 0.0
2015-May-21 13:33N 35°36' E 140°06'0 0.0
2015-May-21 12:33N 35°36' E 140°06'0 0.0
2015-May-21 11:34N 35°36' E 140°06'0 0.0
2015-May-21 10:33N 35°36' E 140°06'0 0.0
2015-May-21 09:33N 35°36' E 140°06'1 1.2
2015-May-21 08:33N 35°35' E 140°06'1 0.6
2015-May-21 07:34N 35°35' E 140°06'3 2.5
2015-May-21 06:32N 35°34' E 140°03'0 0.0
2015-May-21 05:33N 35°34' E 140°03'0 0.0
2015-May-21 04:33N 35°34' E 140°03'4 4.0
2015-May-21 03:33N 35°33' E 139°59'3 2.7
2015-May-21 02:33N 35°31' E 139°56'0 0.4
2015-May-21 01:33N 35°31' E 139°57'0 0.0
2015-May-21 00:33N 35°31' E 139°57'3 2.7
2015-May-20 23:33N 35°28' E 139°58'4 4.3
2015-May-20 22:33N 35°32' E 140°02'6 5.8
2015-May-20 21:34N 35°36' E 140°06'0 0.0
2015-May-20 20:34N 35°36' E 140°06'0 0.0
2015-May-20 19:33N 35°36' E 140°06'0 0.0
2015-May-20 18:33N 35°36' E 140°06'0 0.0
2015-May-20 17:34N 35°36' E 140°06'0 0.0
2015-May-20 16:33N 35°36' E 140°06'0 0.0
2015-May-20 15:33N 35°36' E 140°06'0 0.0
2015-May-20 14:33N 35°36' E 140°06'0 0.0
2015-May-20 13:34N 35°36' E 140°06'0 0.0
2015-May-20 12:34N 35°36' E 140°06'0 0.0
2015-May-20 11:34N 35°36' E 140°06'0 0.0
2015-May-20 10:34N 35°36' E 140°06'0 0.0
2015-May-20 09:33N 35°36' E 140°06'0 0.0
2015-May-20 08:33N 35°36' E 140°06'0 0.0
2015-May-20 07:33N 35°36' E 140°06'3 2.7
2015-May-20 06:33N 35°33' E 140°06'1 1.0
2015-May-20 05:33N 35°33' E 140°04'3 2.9
2015-May-20 04:32N 35°31' E 140°02'0 0.4
2015-May-20 03:33N 35°31' E 140°02'0 0.4
2015-May-20 02:33N 35°31' E 140°02'1 1.1
2015-May-20 01:33N 35°31' E 140°01'0 0.0
2015-May-20 00:33N 35°31' E 140°01'3 2.9
2015-May-19 23:33N 35°28' E 139°59'10 9.8
2015-May-19 22:33N 35°36' E 140°06'0 0.1
2015-May-19 21:33N 35°36' E 140°06'0 0.0
2015-May-19 20:34N 35°36' E 140°06'0 0.0
2015-May-19 19:33N 35°36' E 140°06'0 0.0
2015-May-19 18:34N 35°36' E 140°06'0 0.0
2015-May-19 17:33N 35°36' E 140°06'0 0.0
2015-May-19 16:33N 35°36' E 140°06'0 0.0
2015-May-19 15:33N 35°36' E 140°06'0 0.0
2015-May-19 14:33N 35°36' E 140°06'0 0.0
2015-May-19 13:34N 35°36' E 140°06'0 0.0
2015-May-19 12:33N 35°36' E 140°06'0 0.0
2015-May-19 11:33N 35°36' E 140°06'0 0.0
2015-May-19 10:33N 35°36' E 140°06'0 0.0
2015-May-19 09:33N 35°36' E 140°06'0 0.0
2015-May-19 08:34N 35°36' E 140°06'0 0.0
2015-May-19 07:34N 35°36' E 140°06'1 1.2
2015-May-19 06:33N 35°35' E 140°06'2 2.1
2015-May-19 05:33N 35°35' E 140°04'0 0.3
2015-May-19 04:32N 35°35' E 140°04'0 0.0
2015-May-19 03:33N 35°35' E 140°04'0 0.0
2015-May-19 02:32N 35°35' E 140°04'0 0.0
2015-May-19 01:33N 35°35' E 140°04'0 0.0
2015-May-19 00:33N 35°35' E 140°04'2 2.1
2015-May-18 23:33N 35°35' E 140°06'2 1.9
2015-May-18 22:33N 35°36' E 140°05'0 0.3
2015-May-18 21:33N 35°36' E 140°05'1 0.9
2015-May-18 20:34N 35°36' E 140°06'0 0.0
2015-May-18 19:34N 35°36' E 140°06'0 0.0
2015-May-18 18:34N 35°36' E 140°06'0 0.0
2015-May-18 17:34N 35°36' E 140°06'0 0.0
2015-May-18 16:34N 35°36' E 140°06'0 0.0
2015-May-18 15:33N 35°36' E 140°06'0 0.0
2015-May-18 14:33N 35°36' E 140°06'0 0.0
2015-May-18 13:33N 35°36' E 140°06'0 0.0
2015-May-18 12:34N 35°36' E 140°06'0 0.0
2015-May-18 11:33N 35°36' E 140°06'0 0.0
2015-May-18 10:33N 35°36' E 140°06'0 0.0
2015-May-18 09:34N 35°36' E 140°06'0 0.0
2015-May-18 08:34N 35°36' E 140°06'0 0.0
2015-May-18 07:34N 35°36' E 140°06'7 6.7
2015-May-18 06:33N 35°33' E 139°59'3 3.1
2015-May-18 05:34N 35°31' E 139°56'2 1.9
2015-May-18 04:34N 35°30' E 139°54'1 0.7
2015-May-18 03:33N 35°29' E 139°55'3 2.6
2015-May-18 02:33N 35°28' E 139°58'0 0.4
2015-May-18 01:34N 35°29' E 139°59'0 0.0
2015-May-18 00:33N 35°29' E 139°59'0 0.0
2015-May-17 23:32N 35°29' E 139°59'0 0.5
2015-May-17 22:33N 35°28' E 139°59'1 0.9
2015-May-17 21:33N 35°29' E 139°59'9 9.3
2015-May-17 20:34N 35°36' E 140°06'0 0.2
2015-May-17 19:34N 35°36' E 140°06'0 0.0
2015-May-17 18:33N 35°36' E 140°06'0 0.0
2015-May-17 17:33N 35°36' E 140°06'0 0.0
2015-May-17 16:33N 35°36' E 140°06'0 0.0
2015-May-17 15:34N 35°36' E 140°06'0 0.0
2015-May-17 14:33N 35°36' E 140°06'0 0.0
2015-May-17 13:33N 35°36' E 140°06'0 0.0
2015-May-17 12:33N 35°36' E 140°06'0 0.0
2015-May-17 11:33N 35°36' E 140°06'0 0.0
2015-May-17 10:33N 35°36' E 140°06'0 0.0
2015-May-17 09:33N 35°36' E 140°06'0 0.0
2015-May-17 08:34N 35°36' E 140°06'0 0.0
2015-May-17 07:33N 35°36' E 140°06'6 6.0
2015-May-17 06:33N 35°31' E 140°02'1 0.6
2015-May-17 05:33N 35°31' E 140°01'0 0.5
2015-May-17 04:33N 35°32' E 140°01'0 0.0
2015-May-17 03:33N 35°32' E 140°01'0 0.0
2015-May-17 02:33N 35°32' E 140°01'0 0.0
2015-May-17 01:33N 35°32' E 140°01'0 0.0
2015-May-17 00:33N 35°32' E 140°01'0 0.0
2015-May-16 23:34N 35°32' E 140°01'1 0.8
2015-May-16 22:33N 35°31' E 140°00'4 4.0
2015-May-16 21:33N 35°34' E 140°04'3 3.0
2015-May-16 20:34N 35°36' E 140°06'0 0.0
2015-May-16 19:33N 35°36' E 140°06'0 0.0
2015-May-16 18:33N 35°36' E 140°06'0 0.0
2015-May-16 17:33N 35°36' E 140°06'0 0.0
2015-May-16 16:33N 35°36' E 140°06'0 0.0
2015-May-16 15:34N 35°36' E 140°06'0 0.0
2015-May-16 14:33N 35°36' E 140°06'0 0.0
2015-May-16 13:33N 35°36' E 140°06'0 0.0
2015-May-16 12:33N 35°36' E 140°06'0 0.0
2015-May-16 11:33N 35°36' E 140°06'0 0.0
2015-May-16 10:33N 35°36' E 140°06'0 0.0
2015-May-16 09:33N 35°36' E 140°06'0 0.0
2015-May-16 08:33N 35°36' E 140°06'0 0.0
2015-May-16 07:33N 35°36' E 140°06'0 0.0
2015-May-16 06:34N 35°36' E 140°06'0 0.0
2015-May-16 05:34N 35°36' E 140°06'1 0.6
2015-May-16 04:33N 35°36' E 140°07'8 8.4
2015-May-16 03:33N 35°30' E 139°59'2 2.0
2015-May-16 02:33N 35°28' E 139°58'2 2.1
2015-May-16 01:33N 35°30' E 139°56'2 2.1
2015-May-16 00:33N 35°28' E 139°58'4 4.0
2015-May-15 23:33N 35°32' E 140°01'6 6.2
2015-May-15 22:33N 35°36' E 140°06'0 0.0
2015-May-15 21:34N 35°36' E 140°06'0 0.0
2015-May-15 20:33N 35°36' E 140°06'0 0.0
2015-May-15 19:33N 35°36' E 140°06'0 0.0
2015-May-15 18:34N 35°36' E 140°06'0 0.0
2015-May-15 17:34N 35°36' E 140°06'0 0.0
2015-May-15 16:33N 35°36' E 140°06'0 0.0
2015-May-15 15:33N 35°36' E 140°06'0 0.0
2015-May-15 14:34N 35°36' E 140°06'0 0.0
2015-May-15 13:34N 35°36' E 140°06'0 0.0
2015-May-15 12:33N 35°36' E 140°06'0 0.0
2015-May-15 11:34N 35°36' E 140°06'1 1.1
2015-May-15 10:34N 35°35' E 140°05'1 0.7
2015-May-15 09:33N 35°35' E 140°04'2 1.8
2015-May-15 08:33N 35°36' E 140°07'1 0.6
2015-May-15 07:34N 35°36' E 140°06'0 0.0
2015-May-15 06:34N 35°36' E 140°06'0 0.0
2015-May-15 05:33N 35°36' E 140°06'0 0.0
2015-May-15 04:33N 35°36' E 140°06'0 0.0
2015-May-15 03:34N 35°36' E 140°06'0 0.0
2015-May-15 02:33N 35°36' E 140°06'1 0.6
2015-May-15 01:33N 35°36' E 140°06'0 0.5
2015-May-15 00:34N 35°36' E 140°07'1 1.2
2015-May-14 23:33N 35°36' E 140°05'2 1.6
2015-May-14 22:33N 35°35' E 140°04'0 0.5
2015-May-14 21:33N 35°35' E 140°04'1 1.1
2015-May-14 20:33N 35°35' E 140°05'1 1.1
2015-May-14 19:33N 35°36' E 140°06'0 0.0
2015-May-14 18:33N 35°36' E 140°06'0 0.0
2015-May-14 17:33N 35°36' E 140°06'0 0.0
2015-May-14 16:33N 35°36' E 140°06'0 0.0
2015-May-14 15:33N 35°36' E 140°06'0 0.0
2015-May-14 14:33N 35°36' E 140°06'0 0.0
2015-May-14 13:33N 35°36' E 140°06'0 0.0
2015-May-14 12:33N 35°36' E 140°06'0 0.0
2015-May-14 11:34N 35°36' E 140°06'0 0.0
2015-May-14 10:33N 35°36' E 140°06'0 0.0
2015-May-14 09:33N 35°36' E 140°06'0 0.0
2015-May-14 08:33N 35°36' E 140°06'0 0.0
2015-May-14 07:34N 35°36' E 140°06'0 0.1
2015-May-14 06:33N 35°36' E 140°06'3 2.6
2015-May-14 05:33N 35°33' E 140°05'0 0.2
2015-May-14 04:33N 35°33' E 140°05'3 2.7
2015-May-14 03:34N 35°36' E 140°06'1110.9
2015-May-14 02:33N 35°30' E 139°55'1211.7
2015-May-14 01:33N 35°22' E 139°44'6 6.3
2015-May-14 00:33N 35°16' E 139°46'5 5.5
2015-May-13 23:33N 35°11' E 139°47'8 8.1
2015-May-13 22:33N 35°18' E 139°43'9 9.2
2015-May-13 21:33N 35°27' E 139°47'1111.0
2015-May-13 20:33N 35°33' E 139°58'8 7.6
2015-May-13 19:33N 35°36' E 140°06'0 0.0
2015-May-13 18:33N 35°36' E 140°06'0 0.0
2015-May-13 17:34N 35°36' E 140°06'0 0.0
2015-May-13 16:33N 35°36' E 140°06'0 0.0
2015-May-13 15:33N 35°36' E 140°06'0 0.0
2015-May-13 14:33N 35°36' E 140°06'0 0.0
2015-May-13 13:34N 35°36' E 140°06'0 0.0
2015-May-13 12:33N 35°36' E 140°06'0 0.0
2015-May-13 11:33N 35°36' E 140°06'0 0.0
2015-May-13 10:34N 35°36' E 140°06'0 0.0
2015-May-13 09:34N 35°36' E 140°06'0 0.0
2015-May-13 08:33N 35°36' E 140°06'0 0.0
2015-May-13 07:33N 35°36' E 140°06'0 0.0
2015-May-13 06:34N 35°36' E 140°06'1 1.3
2015-May-13 05:33N 35°36' E 140°05'0 0.4
2015-May-13 04:33N 35°36' E 140°05'2 1.8
2015-May-13 03:33N 35°35' E 140°04'0 0.0
2015-May-13 02:33N 35°35' E 140°04'0 0.0
2015-May-13 01:33N 35°35' E 140°04'0 0.0
2015-May-13 00:33N 35°35' E 140°04'0 0.0
2015-May-12 23:33N 35°35' E 140°04'6 5.9
2015-May-12 22:33N 35°40' E 139°60'0 0.2
2015-May-12 21:33N 35°40' E 140°00'  

Dump ship's entire track history